createdAt,value
2018-11-26T00:01:15.344Z,10.33
2018-11-26T00:03:43.676Z,10.67
2018-11-26T00:06:12.256Z,10.70
2018-11-26T00:08:40.042Z,10.10
2018-11-26T00:11:16.043Z,10.97
2018-11-26T00:13:45.829Z,9.77
2018-11-26T00:16:15.087Z,10.30
2018-11-26T00:18:42.842Z,9.57
2018-11-26T00:21:12.033Z,9.87
2018-11-26T00:23:40.135Z,39.23
2018-11-26T00:26:08.061Z,15.57
2018-11-26T00:28:36.780Z,15.53
2018-11-26T00:31:05.108Z,21.27
2018-11-26T00:33:32.865Z,13.00
2018-11-26T00:36:01.193Z,11.17
2018-11-26T00:38:29.842Z,12.40
2018-11-26T00:40:58.860Z,11.90
2018-11-26T00:43:26.611Z,12.13
2018-11-26T00:45:54.932Z,12.53
2018-11-26T00:48:23.827Z,12.17
2018-11-26T00:50:52.529Z,12.50
2018-11-26T00:53:21.057Z,11.50
2018-11-26T00:55:48.804Z,12.43
2018-11-26T00:58:17.166Z,12.23
2018-11-26T01:00:46.091Z,12.40
2018-11-26T01:03:14.430Z,11.20
2018-11-26T01:05:42.170Z,11.87
2018-11-26T01:08:10.497Z,12.60
2018-11-26T01:10:39.413Z,10.90
2018-11-26T01:13:07.715Z,9.37
2018-11-26T01:15:36.029Z,8.87
2018-11-26T01:18:04.350Z,8.80
2018-11-26T01:20:32.094Z,8.00
2018-11-26T01:23:00.999Z,8.90
2018-11-26T01:25:28.738Z,7.57
2018-11-26T01:27:57.629Z,8.10
2018-11-26T01:30:25.378Z,7.70
2018-11-26T01:32:53.676Z,7.23
2018-11-26T01:35:22.576Z,8.27
2018-11-26T01:37:50.902Z,8.40
2018-11-26T01:40:18.642Z,7.63
2018-11-26T01:42:47.550Z,7.47
2018-11-26T01:45:15.531Z,7.97
2018-11-26T01:47:44.466Z,7.30
2018-11-26T01:50:12.208Z,7.60
2018-11-26T01:52:40.513Z,6.93
2018-11-26T01:55:09.406Z,7.03
2018-11-26T01:57:37.719Z,7.57
2018-11-26T02:00:05.451Z,7.27
2018-11-26T02:02:34.369Z,7.57
2018-11-26T02:05:02.101Z,7.27
2018-11-26T02:07:30.989Z,6.97
2018-11-26T02:09:58.720Z,7.47
2018-11-26T02:12:27.353Z,7.10
2018-11-26T02:14:55.345Z,7.70
2018-11-26T02:17:24.237Z,7.27
2018-11-26T02:19:51.979Z,6.80
2018-11-26T02:22:20.876Z,7.00
2018-11-26T02:24:48.614Z,6.97
2018-11-26T02:27:17.511Z,6.87
2018-11-26T02:29:45.252Z,6.93
2018-11-26T02:32:14.132Z,7.10
2018-11-26T02:34:42.446Z,6.93
2018-11-26T02:37:10.765Z,6.83
2018-11-26T02:39:39.089Z,8.17
2018-11-26T02:42:06.835Z,8.37
2018-11-26T02:44:35.726Z,8.13
2018-11-26T02:47:03.459Z,8.17
2018-11-26T02:49:32.351Z,8.73
2018-11-26T02:52:00.667Z,9.30
2018-11-26T02:54:28.998Z,10.10
2018-11-26T02:56:57.589Z,9.20
2018-11-26T02:59:25.901Z,9.30
2018-11-26T03:01:54.224Z,9.17
2018-11-26T03:04:22.569Z,10.43
2018-11-26T03:06:50.306Z,9.50
2018-11-26T03:09:19.213Z,8.13
2018-11-26T03:11:47.525Z,7.77
2018-11-26T03:14:15.262Z,8.17
2018-11-26T03:16:44.171Z,8.73
2018-11-26T03:19:12.482Z,8.47
2018-11-26T03:21:40.809Z,9.53
2018-11-26T03:24:09.138Z,8.67
2018-11-26T03:26:36.892Z,8.13
2018-11-26T03:29:06.121Z,8.20
2018-11-26T03:31:33.866Z,9.53
2018-11-26T03:34:02.987Z,9.27
2018-11-26T03:36:31.313Z,10.87
2018-11-26T03:38:59.627Z,9.50
2018-11-26T03:41:27.370Z,14.83
2018-11-26T03:43:55.683Z,20.97
2018-11-26T03:46:24.587Z,27.73
2018-11-26T03:48:52.330Z,39.13
2018-11-26T03:51:20.655Z,29.60
2018-11-26T03:53:49.149Z,25.43
2018-11-26T03:56:17.884Z,21.73
2018-11-26T03:58:46.200Z,20.37
2018-11-26T04:01:14.529Z,15.30
2018-11-26T04:03:42.849Z,13.10
2018-11-26T04:06:10.661Z,16.63
2018-11-26T04:08:38.938Z,77.67
2018-11-26T04:11:07.840Z,41.30
2018-11-26T04:13:35.590Z,27.53
2018-11-26T04:16:04.486Z,32.50
2018-11-26T04:18:32.827Z,44.97
2018-11-26T04:21:00.621Z,37.03
2018-11-26T04:23:29.499Z,70.83
2018-11-26T04:25:57.832Z,66.57
2018-11-26T04:28:26.153Z,29.67
2018-11-26T04:30:53.891Z,16.47
2018-11-26T04:33:22.801Z,28.57
2018-11-26T04:35:50.546Z,24.77
2018-11-26T04:38:18.882Z,30.03
2018-11-26T04:40:47.209Z,29.30
2018-11-26T04:43:16.113Z,25.00
2018-11-26T04:45:44.442Z,18.33
2018-11-26T04:48:12.191Z,35.47
2018-11-26T04:50:41.107Z,80.80
2018-11-26T04:53:09.765Z,65.40
2018-11-26T04:55:38.089Z,39.47
2018-11-26T04:58:06.411Z,23.90
2018-11-26T05:00:34.745Z,78.73
2018-11-26T05:03:03.082Z,117.13
2018-11-26T05:05:31.416Z,41.47
2018-11-26T05:08:00.365Z,86.37
2018-11-26T05:10:28.117Z,80.63
2018-11-26T05:12:56.446Z,54.17
2018-11-26T05:15:25.672Z,88.27
2018-11-26T05:17:54.002Z,65.47
2018-11-26T05:20:21.753Z,48.43
2018-11-26T05:22:50.655Z,31.27
2018-11-26T05:25:18.407Z,35.10
2018-11-26T05:27:46.730Z,42.10
2018-11-26T05:30:15.213Z,29.27
2018-11-26T05:32:43.961Z,31.53
2018-11-26T05:35:12.290Z,107.07
2018-11-26T05:37:40.052Z,12.23
2018-11-26T05:40:09.268Z,14.70
2018-11-26T05:42:37.009Z,14.30
2018-11-26T05:45:05.336Z,13.83
2018-11-26T05:47:34.238Z,14.73
2018-11-26T05:50:01.983Z,18.40
2018-11-26T05:52:30.306Z,19.63
2018-11-26T05:54:58.621Z,14.87
2018-11-26T05:57:27.531Z,14.60
2018-11-26T05:59:55.282Z,18.70
2018-11-26T06:02:24.170Z,15.13
2018-11-26T06:04:52.498Z,14.27
2018-11-26T06:07:21.163Z,11.60
2018-11-26T06:09:49.505Z,47.60
2018-11-26T06:12:17.828Z,21.53
2018-11-26T06:14:45.571Z,15.40
2018-11-26T06:17:14.197Z,12.90
2018-11-26T06:19:42.561Z,12.47
2018-11-26T06:22:10.846Z,15.37
2018-11-26T06:24:39.749Z,20.90
2018-11-26T06:27:07.498Z,18.87
2018-11-26T06:29:36.411Z,21.33
2018-11-26T06:32:04.744Z,20.90
2018-11-26T06:34:33.073Z,23.63
2018-11-26T06:37:01.404Z,25.07
2018-11-26T06:39:29.153Z,37.00
2018-11-26T06:41:58.075Z,40.70
2018-11-26T06:44:26.409Z,15.77
2018-11-26T06:46:54.151Z,16.60
2018-11-26T06:49:23.050Z,21.33
2018-11-26T06:51:50.874Z,60.93
2018-11-26T06:54:19.152Z,34.83
2018-11-26T06:56:47.471Z,72.03
2018-11-26T06:59:16.372Z,27.47
2018-11-26T07:01:44.690Z,33.03
2018-11-26T07:04:12.549Z,63.63
2018-11-26T07:06:41.348Z,47.93
2018-11-26T07:09:09.103Z,35.47
2018-11-26T07:11:38.033Z,25.37
2018-11-26T07:14:06.377Z,21.03
2018-11-26T07:16:34.682Z,22.83
2018-11-26T07:19:02.439Z,23.73
2018-11-26T07:21:30.816Z,19.90
2018-11-26T07:23:59.663Z,19.67
2018-11-26T07:26:27.990Z,36.13
2018-11-26T07:28:56.314Z,63.00
2018-11-26T07:31:24.639Z,26.00
2018-11-26T07:33:52.380Z,20.30
2018-11-26T07:36:21.288Z,19.57
2018-11-26T07:38:49.612Z,26.27
2018-11-26T07:41:17.355Z,32.37
2018-11-26T07:43:46.270Z,38.10
2018-11-26T07:46:14.590Z,42.10
2018-11-26T07:48:42.354Z,42.03
2018-11-26T07:51:11.274Z,132.37
2018-11-26T07:53:39.025Z,94.30
2018-11-26T07:56:07.935Z,42.63
2018-11-26T07:58:36.258Z,45.07
2018-11-26T08:01:04.580Z,41.33
2018-11-26T08:03:32.957Z,42.87
2018-11-26T08:06:02.366Z,41.73
2018-11-26T08:08:29.597Z,41.63
2018-11-26T08:10:57.357Z,42.90
2018-11-26T08:13:26.319Z,35.20
2018-11-26T08:15:54.655Z,37.07
2018-11-26T08:18:22.980Z,47.90
2018-11-26T08:20:51.317Z,61.70
2018-11-26T08:23:19.068Z,66.53
2018-11-26T08:25:47.417Z,73.20
2018-11-26T08:28:16.380Z,111.70
2018-11-26T08:30:44.729Z,86.97
2018-11-26T08:33:13.053Z,57.97
2018-11-26T08:35:41.403Z,35.97
2018-11-26T08:38:10.840Z,34.97
2018-11-26T08:40:37.792Z,25.97
2018-11-26T08:43:06.735Z,23.87
2018-11-26T08:45:35.023Z,21.47
2018-11-26T08:48:03.360Z,19.53
2018-11-26T08:50:31.802Z,17.17
2018-11-26T08:53:00.138Z,16.63
2018-11-26T08:55:28.451Z,17.57
2018-11-26T08:57:57.086Z,17.00
2018-11-26T09:00:25.403Z,15.80
2018-11-26T09:02:53.730Z,16.93
2018-11-26T09:05:24.122Z,17.17
2018-11-26T09:07:50.908Z,16.07
2018-11-26T09:10:19.003Z,15.90
2018-11-26T09:12:47.330Z,18.67
2018-11-26T09:15:15.695Z,19.30
2018-11-26T09:17:43.459Z,19.87
2018-11-26T09:20:11.780Z,19.63
2018-11-26T09:22:40.690Z,23.27
2018-11-26T09:25:09.017Z,21.37
2018-11-26T09:27:37.354Z,16.50
2018-11-26T09:30:06.097Z,15.43
2018-11-26T09:32:34.696Z,34.70
2018-11-26T09:35:02.443Z,46.03
2018-11-26T09:37:31.348Z,84.67
2018-11-26T09:39:59.097Z,39.80
2018-11-26T09:42:28.005Z,27.93
2018-11-26T09:44:55.751Z,25.27
2018-11-26T09:47:24.655Z,25.97
2018-11-26T09:49:52.410Z,22.57
2018-11-26T09:52:21.646Z,20.67
2018-11-26T09:54:50.001Z,20.20
2018-11-26T09:57:18.296Z,19.27
2018-11-26T09:59:46.630Z,19.20
2018-11-26T10:02:14.961Z,18.77
2018-11-26T10:04:42.725Z,19.70
2018-11-26T10:07:11.056Z,19.53
2018-11-26T10:09:39.960Z,17.80
2018-11-26T10:12:08.291Z,16.53
2018-11-26T10:14:36.607Z,13.63
2018-11-26T10:17:04.374Z,11.97
2018-11-26T10:19:32.846Z,13.07
2018-11-26T10:22:01.172Z,12.50
2018-11-26T10:24:30.092Z,11.97
2018-11-26T10:26:58.407Z,11.73
2018-11-26T10:29:26.170Z,14.10
2018-11-26T10:31:55.072Z,8.93
2018-11-26T10:34:23.618Z,9.80
2018-11-26T10:36:51.393Z,24.60
2018-11-26T10:39:20.304Z,9.83
2018-11-26T10:41:48.038Z,29.13
2018-11-26T10:44:16.950Z,9.53
2018-11-26T10:46:45.262Z,8.50
2018-11-26T10:49:13.587Z,8.80
2018-11-26T10:51:41.898Z,7.80
2018-11-26T10:54:09.651Z,9.10
2018-11-26T10:56:37.966Z,8.80
2018-11-26T10:59:06.289Z,12.53
2018-11-26T11:01:35.190Z,8.80
2018-11-26T11:04:02.931Z,8.30
2018-11-26T11:06:31.832Z,8.43
2018-11-26T11:08:59.567Z,6.23
2018-11-26T11:11:28.487Z,5.57
2018-11-26T11:13:56.224Z,4.33
2018-11-26T11:16:25.107Z,4.10
2018-11-26T11:18:53.443Z,5.00
2018-11-26T11:21:21.757Z,4.93
2018-11-26T11:23:49.499Z,4.40
2018-11-26T11:26:17.832Z,4.70
2018-11-26T11:28:46.708Z,4.93
2018-11-26T11:31:15.029Z,4.20
2018-11-26T11:33:43.346Z,4.13
2018-11-26T11:36:11.671Z,4.60
2018-11-26T11:38:39.976Z,4.60
2018-11-26T11:41:08.305Z,4.13
2018-11-26T11:43:36.620Z,4.40
2018-11-26T11:46:04.947Z,5.30
2018-11-26T11:48:33.266Z,4.50
2018-11-26T11:51:01.587Z,4.63
2018-11-26T11:53:29.963Z,5.77
2018-11-26T11:55:58.292Z,4.50
2018-11-26T11:58:26.620Z,5.07
2018-11-26T12:00:54.945Z,4.57
2018-11-26T12:03:23.279Z,3.57
2018-11-26T12:05:51.592Z,3.33
2018-11-26T12:08:19.913Z,4.43
2018-11-26T12:10:48.230Z,4.40
2018-11-26T12:13:16.566Z,4.83
2018-11-26T12:15:44.913Z,3.87
2018-11-26T12:18:13.542Z,26.17
2018-11-26T12:20:41.878Z,13.77
2018-11-26T12:23:10.213Z,42.10
2018-11-26T12:25:38.536Z,9.57
2018-11-26T12:28:06.873Z,6.67
2018-11-26T12:30:35.185Z,4.73
2018-11-26T12:33:03.507Z,4.50
2018-11-26T12:35:31.825Z,3.90
2018-11-26T12:38:00.148Z,4.50
2018-11-26T12:40:28.471Z,5.00
2018-11-26T12:42:56.781Z,4.20
2018-11-26T12:45:25.101Z,4.00
2018-11-26T12:47:53.420Z,3.97
2018-11-26T12:50:21.762Z,4.13
2018-11-26T12:52:50.902Z,3.97
2018-11-26T12:55:19.231Z,6.50
2018-11-26T12:57:47.547Z,5.40
2018-11-26T13:00:15.855Z,6.13
2018-11-26T13:02:44.186Z,5.77
2018-11-26T13:05:12.495Z,8.90
2018-11-26T13:07:40.815Z,8.27
2018-11-26T13:10:09.151Z,6.67
2018-11-26T13:12:37.463Z,9.13
2018-11-26T13:15:05.789Z,5.20
2018-11-26T13:17:34.114Z,5.87
2018-11-26T13:20:02.455Z,136.10
2018-11-26T13:22:30.801Z,32.63
2018-11-26T13:24:59.129Z,22.87
2018-11-26T13:27:27.444Z,4.53
2018-11-26T13:29:55.772Z,5.00
2018-11-26T13:32:24.093Z,5.93
2018-11-26T13:34:52.420Z,7.57
2018-11-26T13:37:20.754Z,7.63
2018-11-26T13:39:49.087Z,8.03
2018-11-26T13:42:17.418Z,10.47
2018-11-26T13:44:45.750Z,10.23
2018-11-26T13:47:14.079Z,14.80
2018-11-26T13:49:42.404Z,17.43
2018-11-26T13:52:10.738Z,24.13
2018-11-26T13:54:39.063Z,25.27
2018-11-26T13:57:07.385Z,29.13
2018-11-26T13:59:35.716Z,24.40
2018-11-26T14:02:04.305Z,22.33
2018-11-26T14:04:32.635Z,18.63
2018-11-26T14:07:00.965Z,28.33
2018-11-26T14:09:29.297Z,15.27
2018-11-26T14:11:57.624Z,15.40
2018-11-26T14:14:25.951Z,20.37
2018-11-26T14:16:54.277Z,22.13
2018-11-26T14:19:22.613Z,21.97
2018-11-26T14:21:50.938Z,37.23
2018-11-26T14:24:19.279Z,26.90
2018-11-26T14:26:48.504Z,29.73
2018-11-26T14:29:16.839Z,33.73
2018-11-26T14:31:45.175Z,57.60
2018-11-26T14:34:13.521Z,53.30
2018-11-26T14:36:41.847Z,33.60
2018-11-26T14:39:10.190Z,76.90
2018-11-26T14:41:38.520Z,31.53
2018-11-26T14:44:08.138Z,28.87
2018-11-26T14:46:36.469Z,41.13
2018-11-26T14:49:05.071Z,41.23
2018-11-26T14:51:33.397Z,43.97
2018-11-26T14:54:01.723Z,35.73
2018-11-26T14:56:30.050Z,31.87
2018-11-26T14:58:58.386Z,32.03
2018-11-26T15:01:26.719Z,52.43
2018-11-26T15:03:55.061Z,40.93
2018-11-26T15:06:23.393Z,22.13
2018-11-26T15:08:51.722Z,19.97
2018-11-26T15:11:20.049Z,16.37
2018-11-26T15:13:48.379Z,15.23
2018-11-26T15:16:16.719Z,22.23
2018-11-26T15:18:45.042Z,18.23
2018-11-26T15:21:13.377Z,17.70
2018-11-26T15:23:41.707Z,19.97
2018-11-26T15:26:10.030Z,24.20
2018-11-26T15:28:38.357Z,16.60
2018-11-26T15:31:06.693Z,16.87
2018-11-26T15:33:35.020Z,32.90
2018-11-26T15:36:03.347Z,44.90
2018-11-26T15:38:31.677Z,38.63
2018-11-26T15:41:00.024Z,30.80
2018-11-26T15:43:28.360Z,29.30
2018-11-26T15:45:57.000Z,26.27
2018-11-26T15:48:25.317Z,24.50
2018-11-26T15:50:53.974Z,24.97
2018-11-26T15:53:22.312Z,60.20
2018-11-26T15:55:50.664Z,79.50
2018-11-26T15:58:23.589Z,62.47
2018-11-26T16:00:47.334Z,42.57
2018-11-26T16:03:15.667Z,46.70
2018-11-26T16:05:44.002Z,38.47
2018-11-26T16:08:12.332Z,44.37
2018-11-26T16:10:40.661Z,43.70
2018-11-26T16:13:08.983Z,44.93
2018-11-26T16:15:37.312Z,51.70
2018-11-26T16:18:05.659Z,48.30
2018-11-26T16:20:33.997Z,75.00
2018-11-26T16:23:02.335Z,81.13
2018-11-26T16:25:30.675Z,76.80
2018-11-26T16:27:59.031Z,72.53
2018-11-26T16:30:27.374Z,70.33
2018-11-26T16:32:55.711Z,53.83
2018-11-26T16:35:24.046Z,42.40
2018-11-26T16:37:52.376Z,27.37
2018-11-26T16:40:20.814Z,29.20
2018-11-26T16:42:49.101Z,33.63
2018-11-26T16:45:17.435Z,49.47
2018-11-26T16:47:45.753Z,35.30
2018-11-26T16:50:14.099Z,39.90
2018-11-26T16:52:43.057Z,24.37
2018-11-26T16:55:11.399Z,19.27
2018-11-26T16:57:40.862Z,18.63
2018-11-26T17:00:08.318Z,19.80
2018-11-26T17:02:43.667Z,22.93
2018-11-26T17:05:12.033Z,27.17
2018-11-26T17:07:40.702Z,32.70
2018-11-26T17:10:08.807Z,28.00
2018-11-26T17:12:37.464Z,34.37
2018-11-26T17:15:07.808Z,47.97
2018-11-26T17:17:36.177Z,34.23
2018-11-26T17:20:04.498Z,34.17
2018-11-26T17:22:32.874Z,45.60
2018-11-26T17:25:01.287Z,41.87
2018-11-26T17:27:29.667Z,37.67
2018-11-26T17:29:58.135Z,27.60
2018-11-26T17:32:26.844Z,27.37
2018-11-26T17:34:55.447Z,34.70
2018-11-26T17:37:24.202Z,39.90
2018-11-26T17:39:52.860Z,51.20
2018-11-26T17:42:21.551Z,38.83
2018-11-26T17:44:49.878Z,30.30
2018-11-26T17:47:18.200Z,33.17
2018-11-26T17:49:46.551Z,53.97
2018-11-26T17:52:14.931Z,65.70
2018-11-26T17:54:43.253Z,58.03
2018-11-26T17:57:11.588Z,59.17
2018-11-26T17:59:39.992Z,61.30
2018-11-26T18:02:08.322Z,57.13
2018-11-26T18:04:36.680Z,62.23
2018-11-26T18:07:05.017Z,58.43
2018-11-26T18:09:33.353Z,56.70
2018-11-26T18:12:01.704Z,66.50
2018-11-26T18:14:30.101Z,58.60
2018-11-26T18:16:58.495Z,70.30
2018-11-26T18:19:26.978Z,53.93
2018-11-26T18:21:55.333Z,50.07
2018-11-26T18:24:24.014Z,49.93
2018-11-26T18:26:52.351Z,48.30
2018-11-26T18:29:20.680Z,53.87
2018-11-26T18:31:49.116Z,54.77
2018-11-26T18:34:17.494Z,49.03
2018-11-26T18:36:45.844Z,53.03
2018-11-26T18:39:14.182Z,51.53
2018-11-26T18:41:42.519Z,50.60
2018-11-26T18:44:10.852Z,53.63
2018-11-26T18:46:39.194Z,55.43
2018-11-26T18:49:08.642Z,59.70
2018-11-26T18:51:36.975Z,65.77
2018-11-26T18:54:05.394Z,67.87
2018-11-26T18:56:33.752Z,56.93
2018-11-26T18:59:02.147Z,53.83
2018-11-26T19:01:30.541Z,52.20
2018-11-26T19:03:59.295Z,56.90
2018-11-26T19:06:27.653Z,56.47
2018-11-26T19:08:56.331Z,63.20
2018-11-26T19:11:24.671Z,105.13
2018-11-26T19:13:53.020Z,65.03
2018-11-26T19:16:21.731Z,63.10
2018-11-26T19:18:50.206Z,62.27
2018-11-26T19:21:18.576Z,70.27
2018-11-26T19:23:46.924Z,69.60
2018-11-26T19:26:15.265Z,64.67
2018-11-26T19:28:43.679Z,66.23
2018-11-26T19:31:12.055Z,58.80
2018-11-26T19:33:40.393Z,56.70
2018-11-26T19:36:10.109Z,61.80
2018-11-26T19:38:38.587Z,57.53
2018-11-26T19:41:06.800Z,56.63
2018-11-26T19:43:35.151Z,49.23
2018-11-26T19:46:03.494Z,52.40
2018-11-26T19:48:31.931Z,51.23
2018-11-26T19:51:00.363Z,51.70
2018-11-26T19:53:28.706Z,47.83
2018-11-26T19:55:57.012Z,40.60
2018-11-26T19:58:25.374Z,39.63
2018-11-26T20:00:53.744Z,36.97
2018-11-26T20:03:22.069Z,36.63
2018-11-26T20:05:50.409Z,36.47
2018-11-26T20:08:18.767Z,40.67
2018-11-26T20:10:47.072Z,38.67
2018-11-26T20:13:15.520Z,38.13
2018-11-26T20:15:43.754Z,37.73
2018-11-26T20:18:12.089Z,40.67
2018-11-26T20:20:40.473Z,41.10
2018-11-26T20:23:08.800Z,46.20
2018-11-26T20:25:37.152Z,49.57
2018-11-26T20:28:05.481Z,54.63
2018-11-26T20:30:33.823Z,55.27
2018-11-26T20:33:02.374Z,55.67
2018-11-26T20:35:30.747Z,56.13
2018-11-26T20:37:59.080Z,62.47
2018-11-26T20:40:28.207Z,80.67
2018-11-26T20:42:56.822Z,65.63
2018-11-26T20:45:25.185Z,57.23
2018-11-26T20:47:53.580Z,58.83
2018-11-26T20:50:21.910Z,56.27
2018-11-26T20:52:50.244Z,64.57
2018-11-26T20:55:18.808Z,69.73
2018-11-26T20:57:46.957Z,70.77
2018-11-26T21:00:15.267Z,69.90
2018-11-26T21:02:43.645Z,57.50
2018-11-26T21:05:11.977Z,60.47
2018-11-26T21:07:40.312Z,53.87
2018-11-26T21:10:08.660Z,58.03
2018-11-26T21:12:37.105Z,56.13
2018-11-26T21:15:05.433Z,56.83
2018-11-26T21:17:33.782Z,52.03
2018-11-26T21:20:02.114Z,54.90
2018-11-26T21:22:30.440Z,55.53
2018-11-26T21:24:58.768Z,51.47
2018-11-26T21:27:27.093Z,48.97
2018-11-26T21:29:55.417Z,46.77
2018-11-26T21:32:23.754Z,50.27
2018-11-26T21:34:52.085Z,52.47
2018-11-26T21:37:20.441Z,54.80
2018-11-26T21:39:48.789Z,54.40
2018-11-26T21:42:17.129Z,54.90
2018-11-26T21:44:45.485Z,55.30
2018-11-26T21:47:13.805Z,55.17
2018-11-26T21:49:42.144Z,56.00
2018-11-26T21:52:10.465Z,65.10
2018-11-26T21:54:38.843Z,62.70
2018-11-26T21:57:07.180Z,62.17
2018-11-26T21:59:35.532Z,59.70
2018-11-26T22:02:03.959Z,64.57
2018-11-26T22:04:32.303Z,69.60
2018-11-26T22:07:00.634Z,74.13
2018-11-26T22:09:29.019Z,65.73
2018-11-26T22:39:24.928Z,46.97
2018-11-26T22:41:53.254Z,39.57
2018-11-26T22:44:21.992Z,37.67
2018-11-26T22:46:50.316Z,34.83
2018-11-26T22:49:18.652Z,42.07
2018-11-26T22:51:51.273Z,43.37
2018-11-26T22:54:15.345Z,46.60
2018-11-26T22:56:43.668Z,47.50
2018-11-26T22:59:11.998Z,47.87
2018-11-26T23:01:40.328Z,48.43
2018-11-26T23:04:08.654Z,44.80
2018-11-26T23:06:36.984Z,43.87
2018-11-26T23:09:05.314Z,45.87
2018-11-26T23:11:33.651Z,38.30
2018-11-26T23:14:01.979Z,35.97
2018-11-26T23:16:30.304Z,37.43
2018-11-26T23:18:58.629Z,34.13
2018-11-26T23:21:26.953Z,33.33
2018-11-26T23:23:55.280Z,35.33
2018-11-26T23:26:23.608Z,35.10
2018-11-26T23:28:51.936Z,34.53
2018-11-26T23:31:20.258Z,35.60
2018-11-26T23:33:48.589Z,36.67
2018-11-26T23:36:16.914Z,38.93
2018-11-26T23:38:45.245Z,38.57
2018-11-26T23:41:13.592Z,32.93
2018-11-26T23:43:41.936Z,29.87
2018-11-26T23:46:10.251Z,29.10
2018-11-26T23:48:38.584Z,26.23
2018-11-26T23:51:06.916Z,23.80
2018-11-26T23:53:35.248Z,26.47
2018-11-26T23:56:03.579Z,25.67
2018-11-26T23:58:31.902Z,23.40
